PASN/SNP METAR and TAF weather

Enter ICAO airport designator
Station Type Date Time Source
PASN METAR 2020/08/28 04:09 UTC NOAA

PASN 280409Z 08006KT 10SM BKN037 14/08 A2994 RMK NOSPECI


Station Type Date Time Source
PASN Decoded METAR 2020/08/28 04:09 UTC NOAA

ST PAUL ISLAND AIRPORT, AK, United States (PASN) 57-10N 170-13W 9M
Aug 28, 2020 - 12:09 AM EDT / 2020.08.28 0409 UTC
Wind: from the E (080 degrees) at 7 MPH (6 KT):0
Visibility: 10 mile(s):0
Sky conditions: mostly cloudy
Temperature: 57 F (14 C)
Dew Point: 46 F (8 C)
Relative Humidity: 67%
Pressure (altimeter): 29.94 in. Hg (1013 hPa)
ob: PASN 280409Z 08006KT 10SM BKN037 14/08 A2994 RMK NOSPECI
cycle: 4

Station Type Date Time Source
PASN TAF 2020/09/19 18:39 UTC NOAA

TAF PASN 191737Z 1918/2018 18010KT P6SM SKC
FM200400 14012KT P6SM -RA OVC015
FM201400 11023G30KT 4SM -RA BR OVC007

Example: see airport list